FWZ3TG EDDM-CYHZ
Flight info
| Callsign | FWZ3TG |
|---|---|
| Flight time | N/A |
| Altitude | 32000 |
| Route | MERSI4E MERSI Y100 UMTEX Y100 TRA L856 HOC DCT LUL DCT RLP DCT ROTSI DCT AMODO DCT COHPA UM729 RESMI UN491 LGL UN502 JSY DCT LIZAD DCT LULOX0 DCT GIPER DCT ELSOX DCT DINIM/M083F340 DCT 52N020W 53N030W 53N040W 51N050W DCT ALLRY DCT SASUG DCT AGMIR LIRLA5 |
| Aircraft | B77L/H-SDE1E2E3FGHIJ2J3J4J5M1RWXY/LB1D1 |
Departure
| Time | N/A |
|---|---|
| Airport | Munich Airport (EDDM) |
Arrival
| Time | 2026-04-28 22:35 |
|---|---|
| Airport | Halifax / Stanfield International Airport (CYHZ) |
| Time | Latitude | Longitude | Altitude | Speed | Heading |
|---|---|---|---|---|---|
| 2026-04-28 20:59 | 51.05778 | -49.77023 | 34391 ft | 471 kts | 255° |
| 2026-04-28 21:00 | 51.03353 | -49.86688 | 34394 ft | 471 kts | 255° |
| 2026-04-28 21:00 | 51.00940 | -49.96278 | 34395 ft | 471 kts | 254° |
| 2026-04-28 21:01 | 50.98534 | -50.05947 | 34383 ft | 470 kts | 255° |
| 2026-04-28 21:01 | 50.96212 | -50.15660 | 34381 ft | 472 kts | 256° |
| 2026-04-28 21:02 | 50.93879 | -50.25427 | 34396 ft | 475 kts | 256° |
| 2026-04-28 21:02 | 50.91527 | -50.35175 | 34396 ft | 478 kts | 256° |
| 2026-04-28 21:03 | 50.89131 | -50.45025 | 34368 ft | 480 kts | 255° |
| 2026-04-28 21:03 | 50.86717 | -50.54896 | 34385 ft | 481 kts | 255° |
| 2026-04-28 21:04 | 50.84291 | -50.64776 | 34388 ft | 482 kts | 255° |
| 2026-04-28 21:04 | 50.81873 | -50.74579 | 34388 ft | 482 kts | 255° |
| 2026-04-28 21:05 | 50.79430 | -50.84441 | 34387 ft | 481 kts | 255° |
| 2026-04-28 21:05 | 50.76984 | -50.94274 | 34369 ft | 480 kts | 255° |
| 2026-04-28 21:06 | 50.74533 | -51.04082 | 34382 ft | 480 kts | 255° |
| 2026-04-28 21:06 | 50.72092 | -51.13812 | 34363 ft | 480 kts | 255° |
| 2026-04-28 21:07 | 50.69619 | -51.23626 | 34381 ft | 482 kts | 255° |
| 2026-04-28 21:07 | 50.67126 | -51.33477 | 34382 ft | 485 kts | 255° |
| 2026-04-28 21:08 | 50.64613 | -51.43362 | 34375 ft | 487 kts | 255° |
| 2026-04-28 21:08 | 50.62096 | -51.53215 | 34387 ft | 489 kts | 255° |
| 2026-04-28 21:09 | 50.59545 | -51.63159 | 34383 ft | 491 kts | 254° |
| 2026-04-28 21:09 | 50.56980 | -51.73116 | 34378 ft | 491 kts | 254° |
| 2026-04-28 21:10 | 50.54407 | -51.83060 | 34361 ft | 491 kts | 254° |
| 2026-04-28 21:10 | 50.51849 | -51.92911 | 34380 ft | 490 kts | 254° |
| 2026-04-28 21:11 | 50.48833 | -52.02574 | 34379 ft | 498 kts | 244° |
| 2026-04-28 21:11 | 50.44790 | -52.11471 | 34383 ft | 501 kts | 239° |
| 2026-04-28 21:12 | 50.40628 | -52.20253 | 34365 ft | 501 kts | 238° |
| 2026-04-28 21:12 | 50.36514 | -52.28986 | 34358 ft | 502 kts | 239° |
| 2026-04-28 21:13 | 50.32383 | -52.37802 | 34369 ft | 503 kts | 239° |
| 2026-04-28 21:13 | 50.28240 | -52.46634 | 34376 ft | 504 kts | 239° |
| 2026-04-28 21:14 | 50.24078 | -52.55476 | 34358 ft | 506 kts | 238° |
| 2026-04-28 21:14 | 50.19899 | -52.64319 | 34375 ft | 507 kts | 238° |
| 2026-04-28 21:15 | 50.15732 | -52.73104 | 34370 ft | 508 kts | 238° |
| 2026-04-28 21:15 | 50.11522 | -52.81949 | 34369 ft | 508 kts | 238° |
| 2026-04-28 21:16 | 50.07305 | -52.90780 | 34358 ft | 508 kts | 238° |
| 2026-04-28 21:16 | 50.03081 | -52.99597 | 34371 ft | 508 kts | 238° |
| 2026-04-28 21:17 | 49.98879 | -53.08336 | 34372 ft | 508 kts | 238° |
| 2026-04-28 21:17 | 49.94641 | -53.17124 | 34364 ft | 508 kts | 237° |
| 2026-04-28 21:18 | 49.90400 | -53.25890 | 34363 ft | 508 kts | 237° |
| 2026-04-28 21:18 | 49.86151 | -53.34641 | 34364 ft | 508 kts | 237° |
| 2026-04-28 21:19 | 49.81898 | -53.43373 | 34364 ft | 508 kts | 237° |
| 2026-04-28 21:19 | 49.77667 | -53.52030 | 34347 ft | 507 kts | 237° |
| 2026-04-28 21:20 | 49.73405 | -53.60724 | 34358 ft | 507 kts | 237° |
| 2026-04-28 21:20 | 49.69132 | -53.69410 | 34363 ft | 508 kts | 237° |
| 2026-04-28 21:21 | 49.64850 | -53.78087 | 34358 ft | 508 kts | 237° |
| 2026-04-28 21:21 | 49.60586 | -53.86700 | 34346 ft | 509 kts | 236° |
| 2026-04-28 21:22 | 49.56284 | -53.95361 | 34354 ft | 509 kts | 236° |
| 2026-04-28 21:22 | 49.52698 | -54.02558 | 34355 ft | 510 kts | 236° |
| 2026-04-28 21:23 | 49.47637 | -54.12684 | 34351 ft | 511 kts | 236° |
| 2026-04-28 21:23 | 49.43325 | -54.21279 | 34346 ft | 511 kts | 236° |
| 2026-04-28 21:24 | 49.38975 | -54.29924 | 34369 ft | 512 kts | 236° |
| 2026-04-28 21:24 | 49.34612 | -54.38564 | 34348 ft | 513 kts | 236° |
| 2026-04-28 21:25 | 49.30242 | -54.47191 | 34362 ft | 512 kts | 236° |
| 2026-04-28 21:25 | 49.25893 | -54.55749 | 34349 ft | 513 kts | 235° |
| 2026-04-28 21:26 | 49.21507 | -54.64352 | 34350 ft | 513 kts | 235° |
| 2026-04-28 21:26 | 49.17111 | -54.72945 | 34350 ft | 513 kts | 235° |
| 2026-04-28 21:27 | 49.12707 | -54.81529 | 34337 ft | 514 kts | 234° |
| 2026-04-28 21:27 | 49.08323 | -54.90046 | 34345 ft | 514 kts | 234° |
| 2026-04-28 21:28 | 49.03899 | -54.98612 | 34351 ft | 514 kts | 234° |
| 2026-04-28 21:28 | 48.99463 | -55.07174 | 34355 ft | 515 kts | 234° |
| 2026-04-28 21:29 | 48.95012 | -55.15738 | 34353 ft | 516 kts | 234° |
| 2026-04-28 21:29 | 48.90582 | -55.24234 | 34361 ft | 516 kts | 234° |
| 2026-04-28 21:30 | 48.86109 | -55.32786 | 34350 ft | 517 kts | 234° |
| 2026-04-28 21:30 | 48.81626 | -55.41328 | 34346 ft | 517 kts | 234° |
| 2026-04-28 21:31 | 48.77131 | -55.49866 | 34350 ft | 518 kts | 234° |
| 2026-04-28 21:31 | 48.72662 | -55.58328 | 34350 ft | 518 kts | 233° |
| 2026-04-28 21:32 | 48.68149 | -55.66847 | 34349 ft | 518 kts | 233° |
| 2026-04-28 21:32 | 48.63633 | -55.75344 | 34343 ft | 518 kts | 233° |
| 2026-04-28 21:33 | 48.59107 | -55.83832 | 34355 ft | 519 kts | 233° |
| 2026-04-28 21:33 | 48.54572 | -55.92311 | 34351 ft | 519 kts | 233° |
| 2026-04-28 21:34 | 48.50059 | -56.00723 | 34348 ft | 519 kts | 233° |
| 2026-04-28 21:34 | 48.45504 | -56.09185 | 34342 ft | 520 kts | 233° |
| 2026-04-28 21:35 | 48.40942 | -56.17633 | 34351 ft | 520 kts | 233° |
| 2026-04-28 21:35 | 48.36372 | -56.26070 | 34345 ft | 520 kts | 233° |
| 2026-04-28 21:36 | 48.31827 | -56.34436 | 34345 ft | 520 kts | 232° |
| 2026-04-28 21:36 | 48.27241 | -56.42849 | 34335 ft | 520 kts | 232° |
| 2026-04-28 21:37 | 48.22653 | -56.51240 | 34348 ft | 520 kts | 232° |
| 2026-04-28 21:37 | 48.18061 | -56.59612 | 34350 ft | 520 kts | 232° |
| 2026-04-28 21:38 | 48.13462 | -56.67972 | 34355 ft | 520 kts | 232° |
| 2026-04-28 21:38 | 48.08888 | -56.76260 | 34365 ft | 520 kts | 232° |
| 2026-04-28 21:39 | 48.04272 | -56.84597 | 34372 ft | 520 kts | 232° |
| 2026-04-28 21:39 | 47.99654 | -56.92914 | 34370 ft | 520 kts | 231° |
| 2026-04-28 21:40 | 47.95031 | -57.01213 | 34387 ft | 520 kts | 231° |
| 2026-04-28 21:40 | 47.90434 | -57.09440 | 34397 ft | 520 kts | 231° |
| 2026-04-28 21:41 | 47.85799 | -57.17710 | 34398 ft | 520 kts | 231° |
| 2026-04-28 21:41 | 47.81166 | -57.25951 | 34412 ft | 519 kts | 231° |
| 2026-04-28 21:42 | 47.76531 | -57.34173 | 34412 ft | 518 kts | 231° |
| 2026-04-28 21:42 | 47.71921 | -57.42322 | 34417 ft | 518 kts | 231° |
| 2026-04-28 21:43 | 47.67284 | -57.50494 | 34426 ft | 517 kts | 230° |
| 2026-04-28 21:43 | 47.62652 | -57.58636 | 34423 ft | 515 kts | 230° |
| 2026-04-28 21:44 | 47.58029 | -57.66736 | 34419 ft | 514 kts | 230° |
| 2026-04-28 21:44 | 47.53442 | -57.74749 | 34426 ft | 512 kts | 230° |
| 2026-04-28 21:45 | 47.48840 | -57.82764 | 34415 ft | 510 kts | 230° |
| 2026-04-28 21:45 | 47.44259 | -57.90718 | 34417 ft | 507 kts | 230° |
| 2026-04-28 21:46 | 47.39693 | -57.98625 | 34415 ft | 505 kts | 230° |
| 2026-04-28 21:46 | 47.35137 | -58.06490 | 34418 ft | 502 kts | 230° |
| 2026-04-28 21:47 | 47.30637 | -58.14237 | 34414 ft | 500 kts | 230° |
| 2026-04-28 21:47 | 47.26119 | -58.21991 | 34401 ft | 498 kts | 229° |
| 2026-04-28 21:48 | 47.21565 | -58.29788 | 34423 ft | 505 kts | 229° |
| 2026-04-28 21:48 | 47.17003 | -58.37571 | 34407 ft | 499 kts | 229° |
| 2026-04-28 21:49 | 47.12511 | -58.45215 | 34414 ft | 497 kts | 229° |
| 2026-04-28 21:49 | 47.07984 | -58.52898 | 34418 ft | 498 kts | 229° |
| 2026-04-28 21:50 | 47.03453 | -58.60565 | 34414 ft | 497 kts | 230° |
| 2026-04-28 21:50 | 46.98931 | -58.68197 | 34413 ft | 495 kts | 229° |
| 2026-04-28 21:51 | 46.94412 | -58.75800 | 34415 ft | 494 kts | 229° |
| 2026-04-28 21:51 | 46.89931 | -58.83320 | 34425 ft | 492 kts | 230° |
| 2026-04-28 21:52 | 46.85436 | -58.90840 | 34413 ft | 490 kts | 230° |
| 2026-04-28 21:52 | 46.80959 | -58.98312 | 34412 ft | 488 kts | 230° |
| 2026-04-28 21:53 | 46.76495 | -59.05741 | 34406 ft | 486 kts | 230° |
| 2026-04-28 21:53 | 46.72070 | -59.13085 | 34418 ft | 485 kts | 230° |
| 2026-04-28 21:54 | 46.67610 | -59.20467 | 34418 ft | 486 kts | 229° |
| 2026-04-28 21:54 | 46.63136 | -59.27853 | 34411 ft | 487 kts | 229° |
| 2026-04-28 21:55 | 46.58646 | -59.35245 | 34412 ft | 487 kts | 229° |
| 2026-04-28 21:55 | 46.54154 | -59.42619 | 34406 ft | 487 kts | 229° |
| 2026-04-28 21:56 | 46.49696 | -59.49918 | 34407 ft | 486 kts | 229° |
| 2026-04-28 21:56 | 46.45214 | -59.57238 | 34404 ft | 485 kts | 229° |
| 2026-04-28 21:57 | 46.40743 | -59.64519 | 34401 ft | 482 kts | 230° |
| 2026-04-28 21:57 | 46.36299 | -59.71737 | 34402 ft | 478 kts | 229° |
| 2026-04-28 21:58 | 46.31910 | -59.78847 | 34398 ft | 475 kts | 229° |
| 2026-04-28 21:58 | 46.27507 | -59.85962 | 34416 ft | 473 kts | 230° |
| 2026-04-28 21:59 | 46.23132 | -59.93017 | 34382 ft | 470 kts | 229° |
| 2026-04-28 22:00 | 46.16474 | -60.03717 | 34389 ft | 484 kts | 229° |
| 2026-04-28 22:00 | 46.12463 | -60.11379 | 34400 ft | 480 kts | 238° |
| 2026-04-28 22:01 | 46.08817 | -60.19218 | 34375 ft | 464 kts | 238° |
| 2026-04-28 22:01 | 46.05212 | -60.26913 | 34393 ft | 464 kts | 237° |
| 2026-04-28 22:02 | 46.01575 | -60.34598 | 34396 ft | 465 kts | 237° |
| 2026-04-28 22:02 | 45.97940 | -60.42232 | 34400 ft | 466 kts | 237° |
| 2026-04-28 22:03 | 45.94273 | -60.49908 | 34371 ft | 465 kts | 237° |
| 2026-04-28 22:03 | 45.90616 | -60.57543 | 34391 ft | 463 kts | 237° |
| 2026-04-28 22:04 | 45.86975 | -60.65128 | 34391 ft | 461 kts | 237° |
| 2026-04-28 22:04 | 45.83366 | -60.72624 | 34389 ft | 458 kts | 238° |
| 2026-04-28 22:05 | 45.79766 | -60.80084 | 34378 ft | 452 kts | 238° |
| 2026-04-28 22:05 | 45.76199 | -60.87456 | 34381 ft | 448 kts | 238° |
| 2026-04-28 22:06 | 45.72638 | -60.94799 | 34121 ft | 453 kts | 238° |
| 2026-04-28 22:06 | 45.70842 | -60.98495 | 33848 ft | 452 kts | 237° |
| 2026-04-28 22:06 | 45.69081 | -61.02111 | 33563 ft | 445 kts | 237° |
| 2026-04-28 22:06 | 45.67324 | -61.05714 | 33282 ft | 438 kts | 238° |
| 2026-04-28 22:07 | 45.65593 | -61.09257 | 33008 ft | 432 kts | 238° |
| 2026-04-28 22:07 | 45.63880 | -61.12764 | 32739 ft | 429 kts | 238° |
| 2026-04-28 22:07 | 45.62178 | -61.16244 | 32472 ft | 426 kts | 238° |
| 2026-04-28 22:07 | 45.60484 | -61.19702 | 32156 ft | 424 kts | 238° |
| 2026-04-28 22:08 | 45.58796 | -61.23148 | 31765 ft | 424 kts | 238° |
| 2026-04-28 22:08 | 45.57108 | -61.26587 | 31426 ft | 422 kts | 238° |
| 2026-04-28 22:08 | 45.55430 | -61.30001 | 31183 ft | 417 kts | 237° |
| 2026-04-28 22:09 | 45.52175 | -61.36608 | 30678 ft | 406 kts | 237° |
| 2026-04-28 22:09 | 45.50561 | -61.39881 | 30222 ft | 401 kts | 237° |
| 2026-04-28 22:09 | 45.48966 | -61.43111 | 29715 ft | 396 kts | 237° |
| 2026-04-28 22:09 | 45.47390 | -61.46300 | 29260 ft | 391 kts | 237° |
| 2026-04-28 22:10 | 45.45831 | -61.49450 | 28829 ft | 387 kts | 237° |
| 2026-04-28 22:10 | 45.44289 | -61.52563 | 28380 ft | 383 kts | 237° |
| 2026-04-28 22:10 | 45.42762 | -61.55643 | 27945 ft | 379 kts | 237° |
| 2026-04-28 22:10 | 45.41243 | -61.58703 | 27503 ft | 377 kts | 236° |
| 2026-04-28 22:11 | 45.39746 | -61.61716 | 27088 ft | 379 kts | 236° |
| 2026-04-28 22:11 | 45.38207 | -61.64813 | 26668 ft | 389 kts | 236° |
| 2026-04-28 22:11 | 45.36622 | -61.67998 | 26221 ft | 399 kts | 236° |
| 2026-04-28 22:11 | 45.35012 | -61.71226 | 25756 ft | 400 kts | 236° |
| 2026-04-28 22:12 | 45.33405 | -61.74444 | 25298 ft | 398 kts | 236° |
| 2026-04-28 22:12 | 45.31807 | -61.77640 | 24847 ft | 396 kts | 235° |
| 2026-04-28 22:12 | 45.30216 | -61.80819 | 24398 ft | 394 kts | 236° |
| 2026-04-28 22:12 | 45.28654 | -61.83940 | 23945 ft | 393 kts | 235° |
| 2026-04-28 22:13 | 45.27074 | -61.87092 | 23431 ft | 391 kts | 236° |
| 2026-04-28 22:13 | 45.25501 | -61.90226 | 22956 ft | 389 kts | 235° |
| 2026-04-28 22:13 | 45.23965 | -61.93364 | 22499 ft | 386 kts | 238° |
| 2026-04-28 22:13 | 45.22685 | -61.96695 | 22077 ft | 384 kts | 245° |
| 2026-04-28 22:14 | 45.21679 | -62.00186 | 21642 ft | 382 kts | 251° |
| 2026-04-28 22:14 | 45.20853 | -62.03754 | 21232 ft | 381 kts | 252° |
| 2026-04-28 22:14 | 45.20037 | -62.07333 | 20799 ft | 383 kts | 252° |
| 2026-04-28 22:14 | 45.19213 | -62.10945 | 20372 ft | 387 kts | 252° |
| 2026-04-28 22:15 | 45.18388 | -62.14541 | 19944 ft | 390 kts | 252° |
| 2026-04-28 22:15 | 45.17545 | -62.18192 | 19432 ft | 391 kts | 251° |
| 2026-04-28 22:15 | 45.16689 | -62.21878 | 18815 ft | 395 kts | 251° |
| 2026-04-28 22:15 | 45.15827 | -62.25571 | 18271 ft | 394 kts | 251° |
| 2026-04-28 22:16 | 45.14967 | -62.29251 | 17789 ft | 392 kts | 251° |
| 2026-04-28 22:16 | 45.14112 | -62.32900 | 17322 ft | 389 kts | 251° |
| 2026-04-28 22:16 | 45.13261 | -62.36520 | 16872 ft | 386 kts | 251° |
| 2026-04-28 22:16 | 45.12418 | -62.40105 | 16422 ft | 383 kts | 251° |
| 2026-04-28 22:17 | 45.11578 | -62.43667 | 15988 ft | 379 kts | 251° |
| 2026-04-28 22:17 | 45.10757 | -62.47145 | 15561 ft | 376 kts | 251° |
| 2026-04-28 22:17 | 45.09930 | -62.50644 | 15129 ft | 373 kts | 250° |
| 2026-04-28 22:17 | 45.09108 | -62.54116 | 14707 ft | 371 kts | 250° |
| 2026-04-28 22:18 | 45.08290 | -62.57563 | 14291 ft | 368 kts | 250° |
| 2026-04-28 22:18 | 45.07479 | -62.60982 | 13823 ft | 365 kts | 250° |
| 2026-04-28 22:18 | 45.06673 | -62.64372 | 13367 ft | 362 kts | 250° |
| 2026-04-28 22:18 | 45.05873 | -62.67727 | 12939 ft | 358 kts | 250° |
| 2026-04-28 22:19 | 45.05082 | -62.71049 | 12521 ft | 355 kts | 249° |
| 2026-04-28 22:19 | 45.04297 | -62.74336 | 12120 ft | 351 kts | 249° |
| 2026-04-28 22:19 | 45.03518 | -62.77593 | 11707 ft | 348 kts | 250° |
| 2026-04-28 22:19 | 45.02755 | -62.80774 | 11307 ft | 345 kts | 249° |
| 2026-04-28 22:20 | 45.02077 | -62.84014 | 10907 ft | 343 kts | 256° |
| 2026-04-28 22:20 | 45.01782 | -62.87354 | 10549 ft | 340 kts | 263° |
| 2026-04-28 22:20 | 45.01603 | -62.90633 | 10403 ft | 329 kts | 263° |
| 2026-04-28 22:20 | 45.01425 | -62.93791 | 10323 ft | 316 kts | 263° |
| 2026-04-28 22:21 | 45.01248 | -62.96833 | 10141 ft | 306 kts | 263° |
| 2026-04-28 22:21 | 45.01072 | -62.99788 | 9895 ft | 298 kts | 263° |
| 2026-04-28 22:21 | 45.00893 | -63.02700 | 9488 ft | 297 kts | 263° |
| 2026-04-28 22:21 | 45.00716 | -63.05549 | 9150 ft | 293 kts | 263° |
| 2026-04-28 22:22 | 45.00538 | -63.08387 | 8804 ft | 289 kts | 262° |
| 2026-04-28 22:22 | 45.00357 | -63.11218 | 8381 ft | 289 kts | 263° |
| 2026-04-28 22:22 | 45.00178 | -63.14027 | 8037 ft | 285 kts | 262° |
| 2026-04-28 22:22 | 45.00000 | -63.16823 | 7561 ft | 287 kts | 262° |
| 2026-04-28 22:23 | 44.99822 | -63.19610 | 7228 ft | 284 kts | 262° |
| 2026-04-28 22:23 | 44.99643 | -63.22376 | 6923 ft | 280 kts | 262° |
| 2026-04-28 22:23 | 44.99468 | -63.25070 | 6790 ft | 273 kts | 263° |
| 2026-04-28 22:23 | 44.99295 | -63.27735 | 6575 ft | 272 kts | 262° |
| 2026-04-28 22:24 | 44.99127 | -63.30307 | 6475 ft | 260 kts | 262° |
| 2026-04-28 22:24 | 44.98966 | -63.32787 | 6336 ft | 248 kts | 262° |
| 2026-04-28 22:24 | 44.98809 | -63.35185 | 5962 ft | 246 kts | 261° |
| 2026-04-28 22:24 | 44.98652 | -63.37568 | 5703 ft | 237 kts | 262° |
| 2026-04-28 22:25 | 44.98503 | -63.39833 | 5547 ft | 227 kts | 261° |
| 2026-04-28 22:25 | 44.98355 | -63.42053 | 5471 ft | 229 kts | 261° |
| 2026-04-28 22:25 | 44.98201 | -63.44327 | 5392 ft | 236 kts | 261° |
| 2026-04-28 22:25 | 44.98045 | -63.46657 | 5189 ft | 240 kts | 262° |
| 2026-04-28 22:26 | 44.98226 | -63.48947 | 5024 ft | 234 kts | 296° |
| 2026-04-28 22:26 | 44.99111 | -63.50819 | 4952 ft | 234 kts | 305° |
| 2026-04-28 22:26 | 45.00061 | -63.52717 | 4875 ft | 239 kts | 303° |
| 2026-04-28 22:26 | 45.01012 | -63.54649 | 4848 ft | 240 kts | 303° |
| 2026-04-28 22:27 | 45.01973 | -63.56593 | 4672 ft | 243 kts | 304° |
| 2026-04-28 22:27 | 45.02948 | -63.58558 | 4395 ft | 241 kts | 304° |
| 2026-04-28 22:27 | 45.03889 | -63.60451 | 4246 ft | 229 kts | 304° |
| 2026-04-28 22:27 | 45.04793 | -63.62269 | 4130 ft | 227 kts | 304° |
| 2026-04-28 22:28 | 45.05707 | -63.64111 | 4035 ft | 229 kts | 304° |
| 2026-04-28 22:28 | 45.06621 | -63.65914 | 3894 ft | 225 kts | 305° |
| 2026-04-28 22:28 | 45.07512 | -63.67679 | 3946 ft | 218 kts | 299° |
| 2026-04-28 22:28 | 45.07935 | -63.69704 | 4009 ft | 217 kts | 264° |
| 2026-04-28 22:29 | 45.07506 | -63.71627 | 3929 ft | 198 kts | 227° |
| 2026-04-28 22:29 | 45.06476 | -63.72646 | 3807 ft | 171 kts | 186° |
| 2026-04-28 22:29 | 45.05327 | -63.72661 | 3819 ft | 167 kts | 173° |
| 2026-04-28 22:29 | 45.04148 | -63.72572 | 3677 ft | 170 kts | 174° |
| 2026-04-28 22:30 | 45.02982 | -63.72493 | 3465 ft | 166 kts | 174° |
| 2026-04-28 22:30 | 45.01860 | -63.72424 | 3271 ft | 161 kts | 174° |
| 2026-04-28 22:30 | 45.00757 | -63.72359 | 3120 ft | 156 kts | 171° |
| 2026-04-28 22:30 | 44.99772 | -63.71798 | 3027 ft | 156 kts | 133° |
| 2026-04-28 22:31 | 44.99070 | -63.70600 | 3026 ft | 161 kts | 131° |
| 2026-04-28 22:31 | 44.98320 | -63.69426 | 3017 ft | 160 kts | 132° |
| 2026-04-28 22:31 | 44.97615 | -63.68222 | 2991 ft | 157 kts | 128° |
| 2026-04-28 22:31 | 44.96975 | -63.66997 | 3000 ft | 154 kts | 127° |
| 2026-04-28 22:32 | 44.96345 | -63.65748 | 2938 ft | 162 kts | 126° |
| 2026-04-28 22:32 | 44.95691 | -63.64436 | 2690 ft | 162 kts | 126° |
| 2026-04-28 22:32 | 44.95054 | -63.63154 | 2463 ft | 157 kts | 126° |
| 2026-04-28 22:32 | 44.94446 | -63.61931 | 2245 ft | 154 kts | 126° |
| 2026-04-28 22:33 | 44.93836 | -63.60706 | 2051 ft | 148 kts | 125° |
| 2026-04-28 22:33 | 44.93270 | -63.59568 | 1831 ft | 134 kts | 125° |
| 2026-04-28 22:33 | 44.92748 | -63.58521 | 1670 ft | 129 kts | 125° |
| 2026-04-28 22:33 | 44.92230 | -63.57478 | 1475 ft | 130 kts | 125° |
| 2026-04-28 22:34 | 44.91711 | -63.56428 | 1292 ft | 131 kts | 125° |
| 2026-04-28 22:34 | 44.91199 | -63.55407 | 1161 ft | 127 kts | 124° |
| 2026-04-28 22:34 | 44.90688 | -63.54377 | 986 ft | 131 kts | 124° |
| 2026-04-28 22:34 | 44.90159 | -63.53324 | 776 ft | 132 kts | 125° |
| 2026-04-28 22:35 | 44.89655 | -63.52297 | 570 ft | 122 kts | 126° |
| 2026-04-28 22:35 | 44.89165 | -63.51317 | 462 ft | 125 kts | 126° |
| 2026-04-28 22:35 | 44.88720 | -63.50431 | 453 ft | 91 kts | 125° |
| 2026-04-28 22:35 | 44.88458 | -63.49914 | 453 ft | 38 kts | 125° |
| 2026-04-28 22:36 | 44.88324 | -63.49642 | 454 ft | 28 kts | 125° |
| 2026-04-28 22:36 | 44.88228 | -63.49450 | 454 ft | 19 kts | 124° |
| 2026-04-28 22:36 | 44.88144 | -63.49369 | 453 ft | 15 kts | 190° |
| 2026-04-28 22:36 | 44.88091 | -63.49468 | 456 ft | 12 kts | 257° |
| 2026-04-28 22:37 | 44.88085 | -63.49587 | 456 ft | 13 kts | 292° |
| 2026-04-28 22:37 | 44.88129 | -63.49681 | 456 ft | 11 kts | 305° |
| 2026-04-28 22:37 | 44.88174 | -63.49771 | 456 ft | 11 kts | 305° |
| 2026-04-28 22:37 | 44.88219 | -63.49861 | 456 ft | 11 kts | 306° |
| 2026-04-28 22:38 | 44.88265 | -63.49951 | 454 ft | 11 kts | 305° |
| 2026-04-28 22:38 | 44.88309 | -63.50041 | 456 ft | 11 kts | 305° |
| 2026-04-28 22:38 | 44.88354 | -63.50130 | 456 ft | 11 kts | 304° |
| 2026-04-28 22:38 | 44.88368 | -63.50243 | 456 ft | 12 kts | 265° |
| 2026-04-28 22:39 | 44.88360 | -63.50363 | 456 ft | 12 kts | 264° |
| 2026-04-28 22:39 | 44.88350 | -63.50494 | 456 ft | 15 kts | 264° |
| 2026-04-28 22:39 | 44.88339 | -63.50633 | 456 ft | 14 kts | 263° |
| 2026-04-28 22:39 | 44.88328 | -63.50769 | 456 ft | 14 kts | 264° |
| 2026-04-28 22:40 | 44.88318 | -63.50906 | 455 ft | 14 kts | 264° |
| 2026-04-28 22:40 | 44.88334 | -63.51043 | 455 ft | 15 kts | 301° |
| 2026-04-28 22:40 | 44.88385 | -63.51150 | 455 ft | 11 kts | 304° |
| 2026-04-28 22:40 | 44.88388 | -63.51242 | 456 ft | 11 kts | 224° |
| 2026-04-28 22:41 | 44.88325 | -63.51316 | 455 ft | 15 kts | 216° |
| 2026-04-28 22:41 | 44.88240 | -63.51401 | 454 ft | 14 kts | 215° |
| 2026-04-28 22:41 | 44.88174 | -63.51467 | 456 ft | 4 kts | 215° |
| 2026-04-28 22:41 | 44.88138 | -63.51502 | 456 ft | 8 kts | 214° |
| 2026-04-28 22:42 | 44.88090 | -63.51549 | 456 ft | 9 kts | 216° |
| 2026-04-28 22:42 | 44.88027 | -63.51612 | 456 ft | 13 kts | 215° |
| 2026-04-28 22:42 | 44.87936 | -63.51702 | 456 ft | 18 kts | 215° |
| 2026-04-28 22:42 | 44.87835 | -63.51801 | 456 ft | 18 kts | 214° |
| 2026-04-28 22:43 | 44.87737 | -63.51898 | 456 ft | 18 kts | 215° |
| 2026-04-28 22:43 | 44.87637 | -63.51996 | 456 ft | 18 kts | 215° |
| 2026-04-28 22:43 | 44.87537 | -63.52095 | 456 ft | 18 kts | 214° |
| 2026-04-28 22:43 | 44.87438 | -63.52193 | 456 ft | 18 kts | 217° |
| 2026-04-28 22:44 | 44.87338 | -63.52293 | 456 ft | 18 kts | 214° |
| 2026-04-28 22:44 | 44.87238 | -63.52391 | 456 ft | 18 kts | 215° |
| 2026-04-28 22:44 | 44.87140 | -63.52488 | 457 ft | 17 kts | 215° |
| 2026-04-28 22:44 | 44.87043 | -63.52583 | 456 ft | 17 kts | 215° |
| 2026-04-28 22:45 | 44.86946 | -63.52678 | 456 ft | 17 kts | 215° |
| 2026-04-28 22:45 | 44.86853 | -63.52777 | 456 ft | 17 kts | 224° |
| 2026-04-28 22:45 | 44.86783 | -63.52889 | 456 ft | 14 kts | 229° |
| 2026-04-28 22:45 | 44.86728 | -63.52984 | 456 ft | 12 kts | 244° |
| 2026-04-28 22:46 | 44.86757 | -63.53083 | 457 ft | 11 kts | 308° |
| 2026-04-28 22:46 | 44.86807 | -63.53170 | 457 ft | 11 kts | 310° |
| 2026-04-28 22:46 | 44.86856 | -63.53254 | 457 ft | 9 kts | 309° |
| 2026-04-28 22:46 | 44.86894 | -63.53318 | 457 ft | 6 kts | 308° |
| 2026-04-28 22:47 | 44.86892 | -63.53379 | 454 ft | 7 kts | 241° |
| 2026-04-28 22:47 | 44.86873 | -63.53421 | 457 ft | 4 kts | 239° |
| 2026-04-28 22:47 | 44.86868 | -63.53433 | 457 ft | 0 kts | 237° |